createdAt,value
2023-03-10T00:00:05.454Z,6.30
2023-03-10T00:02:34.134Z,6.40
2023-03-10T00:05:02.558Z,6.40
2023-03-10T00:09:56.269Z,6.60
2023-03-10T00:12:22.860Z,6.60
2023-03-10T00:14:49.605Z,6.70
2023-03-10T00:17:16.192Z,6.80
2023-03-10T00:19:42.771Z,6.80
2023-03-10T00:22:09.487Z,6.80
2023-03-10T00:24:36.043Z,7.00
2023-03-10T00:27:02.648Z,7.20
2023-03-10T00:29:29.280Z,7.30
2023-03-10T00:31:55.886Z,7.40
2023-03-10T00:34:22.450Z,7.50
2023-03-10T00:36:48.988Z,7.80
2023-03-10T00:39:15.617Z,8.10
2023-03-10T00:41:42.352Z,8.30
2023-03-10T00:44:09.621Z,8.40
2023-03-10T00:46:38.545Z,8.60
2023-03-10T00:49:08.805Z,8.60
2023-03-10T00:51:35.881Z,8.80
2023-03-10T00:54:03.479Z,8.90
2023-03-10T00:56:30.393Z,8.90
2023-03-10T00:58:59.964Z,9.10
2023-03-10T01:01:30.967Z,9.10
2023-03-10T01:04:02.938Z,9.10
2023-03-10T01:06:29.897Z,9.50
2023-03-10T01:08:56.793Z,9.30
2023-03-10T01:11:27.010Z,9.40
2023-03-10T01:13:56.381Z,9.50
2023-03-10T01:16:23.123Z,9.50
2023-03-10T01:18:49.800Z,9.60
2023-03-10T01:21:19.883Z,9.60
2023-03-10T01:23:46.464Z,9.60
2023-03-10T01:26:18.006Z,9.70
2023-03-10T01:28:45.616Z,9.70
2023-03-10T01:31:12.488Z,9.80
2023-03-10T01:33:40.803Z,9.70
2023-03-10T01:36:09.417Z,9.80
2023-03-10T01:38:37.102Z,9.70
2023-03-10T01:41:04.211Z,9.60
2023-03-10T01:43:35.948Z,9.60
2023-03-10T01:46:02.454Z,9.50
2023-03-10T01:48:33.737Z,9.40
2023-03-10T01:51:03.685Z,9.40
2023-03-10T01:53:30.393Z,9.40
2023-03-10T01:56:01.718Z,9.40
2023-03-10T01:58:36.590Z,9.40
2023-03-10T02:01:03.890Z,9.30
2023-03-10T02:03:36.280Z,9.30
2023-03-10T02:06:08.432Z,9.30
2023-03-10T02:08:45.460Z,9.40
2023-03-10T02:11:14.408Z,9.30
2023-03-10T02:13:40.971Z,9.30
2023-03-10T02:16:08.155Z,9.20
2023-03-10T02:18:34.856Z,9.30
2023-03-10T02:21:16.038Z,9.50
2023-03-10T02:24:01.998Z,9.20
2023-03-10T02:26:49.881Z,9.20
2023-03-10T02:29:45.507Z,9.20
2023-03-10T02:32:21.072Z,9.20
2023-03-10T02:34:48.027Z,9.20
2023-03-10T02:37:28.020Z,9.20
2023-03-10T02:39:54.812Z,9.20
2023-03-10T02:42:23.931Z,9.20
2023-03-10T02:44:52.943Z,9.20
2023-03-10T02:47:20.332Z,9.20
2023-03-10T02:49:47.064Z,9.20
2023-03-10T02:52:37.979Z,9.20
2023-03-10T02:55:04.844Z,9.10
2023-03-10T02:57:31.393Z,9.10
2023-03-10T02:59:57.991Z,9.10
2023-03-10T03:02:24.530Z,9.10
2023-03-10T03:04:51.076Z,9.10
2023-03-10T03:07:17.601Z,9.10
2023-03-10T03:09:44.207Z,9.10
2023-03-10T03:12:10.750Z,9.10
2023-03-10T03:14:37.425Z,9.10
2023-03-10T03:17:04.028Z,9.20
2023-03-10T03:19:30.604Z,9.40
2023-03-10T03:24:24.372Z,9.20
2023-03-10T03:26:50.956Z,9.20
2023-03-10T03:29:17.637Z,9.30
2023-03-10T03:31:44.268Z,9.20
2023-03-10T03:34:11.075Z,9.20
2023-03-10T03:36:37.932Z,9.30
2023-03-10T03:39:06.539Z,9.30
2023-03-10T03:41:33.770Z,9.40
2023-03-10T03:44:00.456Z,9.30
2023-03-10T03:46:27.194Z,9.40
2023-03-10T03:48:53.792Z,9.40
2023-03-10T03:51:20.387Z,9.40
2023-03-10T03:56:14.007Z,9.50
2023-03-10T03:58:40.557Z,9.50
2023-03-10T04:01:07.122Z,9.50
2023-03-10T04:03:33.760Z,9.50
2023-03-10T04:06:00.353Z,9.60
2023-03-10T04:08:27.290Z,9.60
2023-03-10T04:10:58.316Z,9.50
2023-03-10T04:13:25.002Z,9.50
2023-03-10T04:15:59.147Z,9.60
2023-03-10T04:18:26.238Z,9.50
2023-03-10T04:20:52.861Z,9.50
2023-03-10T04:23:19.655Z,9.50
2023-03-10T04:25:46.261Z,9.50
2023-03-10T04:28:12.900Z,9.60
2023-03-10T04:30:42.830Z,9.40
2023-03-10T04:33:10.176Z,9.50
2023-03-10T04:35:41.021Z,9.50
2023-03-10T04:38:07.822Z,9.60
2023-03-10T04:40:34.862Z,9.50
2023-03-10T04:43:01.725Z,9.50
2023-03-10T04:45:28.308Z,9.50
2023-03-10T04:47:54.891Z,9.60
2023-03-10T04:50:21.468Z,9.60
2023-03-10T04:52:50.051Z,9.60
2023-03-10T04:55:16.829Z,9.50
2023-03-10T04:57:43.465Z,9.60
2023-03-10T05:00:12.685Z,9.50
2023-03-10T05:02:40.376Z,9.60
2023-03-10T05:05:07.338Z,9.60
2023-03-10T05:07:33.984Z,9.50
2023-03-10T05:10:00.548Z,9.40
2023-03-10T05:12:27.262Z,9.40
2023-03-10T05:14:53.844Z,9.40
2023-03-10T05:17:20.439Z,9.40
2023-03-10T05:19:46.994Z,9.40
2023-03-10T05:22:14.177Z,9.40
2023-03-10T05:24:40.858Z,9.50
2023-03-10T05:27:08.618Z,9.40
2023-03-10T05:29:35.213Z,9.40
2023-03-10T05:32:01.768Z,9.70
2023-03-10T05:34:28.332Z,9.40
2023-03-10T05:36:56.376Z,9.40
2023-03-10T05:39:23.223Z,9.40
2023-03-10T05:41:49.910Z,9.30
2023-03-10T05:44:16.497Z,9.40
2023-03-10T05:46:43.152Z,9.40
2023-03-10T05:49:09.806Z,9.40
2023-03-10T05:51:36.557Z,9.50
2023-03-10T05:54:05.953Z,10.10
2023-03-10T05:56:32.782Z,9.40
2023-03-10T05:58:59.364Z,9.30
2023-03-10T06:01:26.250Z,9.30
2023-03-10T06:03:52.988Z,9.40
2023-03-10T06:06:20.001Z,9.40
2023-03-10T06:08:46.702Z,9.30
2023-03-10T06:11:13.273Z,9.30
2023-03-10T06:13:39.836Z,9.20
2023-03-10T06:16:07.431Z,9.10
2023-03-10T06:18:34.931Z,9.30
2023-03-10T06:21:06.149Z,9.30
2023-03-10T06:23:32.830Z,9.50
2023-03-10T06:26:02.476Z,9.30
2023-03-10T06:28:33.382Z,9.30
2023-03-10T06:31:06.348Z,9.40
2023-03-10T06:33:36.154Z,9.00
2023-03-10T06:36:02.872Z,9.40
2023-03-10T06:38:30.399Z,9.50
2023-03-10T06:40:57.826Z,9.50
2023-03-10T06:43:24.578Z,9.30
2023-03-10T06:45:51.395Z,9.80
2023-03-10T06:48:18.162Z,9.90
2023-03-10T06:50:48.094Z,10.00
2023-03-10T06:53:16.846Z,10.10
2023-03-10T06:55:43.564Z,10.00
2023-03-10T06:58:10.396Z,9.90
2023-03-10T07:00:38.962Z,9.80
2023-03-10T07:03:05.942Z,9.80
2023-03-10T07:05:32.542Z,9.80
2023-03-10T07:07:59.188Z,10.00
2023-03-10T07:10:26.032Z,9.90
2023-03-10T07:12:55.276Z,9.90
2023-03-10T07:15:25.623Z,9.90
2023-03-10T07:17:52.552Z,10.00
2023-03-10T07:20:19.272Z,10.10
2023-03-10T07:22:45.929Z,10.10
2023-03-10T07:25:12.554Z,10.10
2023-03-10T07:27:39.243Z,10.10
2023-03-10T07:30:07.255Z,10.20
2023-03-10T07:32:34.025Z,10.20
2023-03-10T07:35:00.750Z,10.20
2023-03-10T07:37:27.422Z,10.20
2023-03-10T07:39:54.889Z,10.10
2023-03-10T07:42:22.245Z,10.10
2023-03-10T07:44:49.037Z,10.10
2023-03-10T07:47:15.611Z,11.20
2023-03-10T07:49:46.626Z,10.20
2023-03-10T07:52:14.988Z,10.30
2023-03-10T07:54:44.449Z,10.30
2023-03-10T07:57:15.315Z,10.00
2023-03-10T07:59:42.369Z,10.50
2023-03-10T08:02:13.043Z,10.20
2023-03-10T08:04:40.935Z,10.30
2023-03-10T08:07:08.241Z,10.10
2023-03-10T08:09:34.869Z,10.30
2023-03-10T08:12:02.993Z,10.20
2023-03-10T08:14:31.551Z,10.20
2023-03-10T08:16:58.625Z,10.10
2023-03-10T08:19:27.389Z,10.10
2023-03-10T08:21:55.552Z,10.10
2023-03-10T08:24:22.125Z,10.10
2023-03-10T08:26:48.730Z,10.00
2023-03-10T08:29:15.301Z,10.10
2023-03-10T08:31:42.006Z,10.10
2023-03-10T08:34:09.191Z,10.10
2023-03-10T08:40:17.112Z,10.30
2023-03-10T08:42:45.496Z,10.30
2023-03-10T08:45:13.459Z,10.30
2023-03-10T08:47:40.108Z,10.50
2023-03-10T08:50:08.205Z,10.80
2023-03-10T08:52:34.969Z,11.00
2023-03-10T08:55:01.616Z,10.80
2023-03-10T08:57:28.194Z,10.80
2023-03-10T08:59:54.756Z,10.60
2023-03-10T09:02:22.079Z,10.60
2023-03-10T09:04:49.848Z,10.60
2023-03-10T09:07:17.231Z,10.50
2023-03-10T09:09:44.324Z,10.50
2023-03-10T09:12:11.932Z,10.60
2023-03-10T09:14:38.734Z,10.50
2023-03-10T09:17:05.685Z,10.40
2023-03-10T09:19:35.355Z,10.50
2023-03-10T09:22:02.006Z,9.90
2023-03-10T09:24:28.672Z,10.70
2023-03-10T09:26:56.075Z,10.70
2023-03-10T09:29:36.450Z,10.70
2023-03-10T09:32:08.893Z,10.70
2023-03-10T09:34:35.822Z,11.00
2023-03-10T09:37:06.893Z,11.20
2023-03-10T09:39:34.938Z,11.40
2023-03-10T09:42:10.956Z,11.80
2023-03-10T09:45:18.073Z,11.90
2023-03-10T09:48:04.858Z,11.90
2023-03-10T09:50:38.700Z,11.90
2023-03-10T09:53:36.091Z,12.40
2023-03-10T09:56:15.629Z,12.40
2023-03-10T09:58:58.235Z,12.00
2023-03-10T10:01:29.162Z,11.70
2023-03-10T10:04:01.028Z,11.60
2023-03-10T10:06:33.076Z,11.80
2023-03-10T10:09:05.805Z,12.00
2023-03-10T10:11:34.579Z,12.20
2023-03-10T10:14:28.395Z,12.40
2023-03-10T10:17:01.942Z,13.00
2023-03-10T10:19:28.970Z,14.20
2023-03-10T10:22:19.358Z,14.40
2023-03-10T10:25:08.405Z,15.10
2023-03-10T10:27:36.937Z,15.30
2023-03-10T10:30:26.888Z,15.30
2023-03-10T10:33:20.121Z,18.20
2023-03-10T10:36:14.960Z,17.80
2023-03-10T10:38:52.467Z,16.20
2023-03-10T10:41:21.525Z,16.50
2023-03-10T10:43:50.268Z,16.60
2023-03-10T10:46:25.932Z,18.80
2023-03-10T10:49:19.066Z,18.50
2023-03-10T10:51:57.360Z,16.60
2023-03-10T10:54:28.857Z,16.00
2023-03-10T10:56:58.122Z,15.30
2023-03-10T10:59:31.535Z,16.30
2023-03-10T11:02:33.492Z,16.70
2023-03-10T11:05:12.316Z,15.70
2023-03-10T11:07:39.250Z,16.10
2023-03-10T11:10:15.487Z,15.40
2023-03-10T11:12:48.573Z,15.00
2023-03-10T11:15:25.528Z,14.70
2023-03-10T11:18:29.419Z,14.30
2023-03-10T11:21:16.467Z,13.90
2023-03-10T11:23:53.975Z,13.70
2023-03-10T11:26:39.449Z,13.70
2023-03-10T11:29:36.745Z,13.70
2023-03-10T11:32:30.035Z,14.30
2023-03-10T11:34:58.177Z,15.50
2023-03-10T11:37:30.484Z,17.60
2023-03-10T11:40:16.185Z,19.80
2023-03-10T11:42:54.061Z,19.90
2023-03-10T11:45:54.666Z,18.30
2023-03-10T11:48:46.000Z,16.50
2023-03-10T11:51:41.950Z,15.70
2023-03-10T11:54:23.895Z,14.90
2023-03-10T11:56:53.159Z,14.30
2023-03-10T11:59:25.766Z,14.00
2023-03-10T12:02:12.404Z,14.20
2023-03-10T12:04:57.218Z,14.70
2023-03-10T12:07:37.750Z,14.90
2023-03-10T12:10:12.715Z,14.80
2023-03-10T12:12:42.662Z,14.80
2023-03-10T12:15:30.300Z,14.80
2023-03-10T12:17:57.260Z,14.80
2023-03-10T12:20:27.077Z,14.60
2023-03-10T12:23:17.405Z,14.10
2023-03-10T12:25:45.703Z,13.80
2023-03-10T12:28:25.529Z,13.50
2023-03-10T12:31:10.694Z,13.20
2023-03-10T12:33:44.572Z,12.90
2023-03-10T12:36:37.236Z,12.60
2023-03-10T12:39:28.679Z,12.60
2023-03-10T12:41:56.894Z,12.50
2023-03-10T12:44:23.507Z,12.30
2023-03-10T12:47:11.463Z,12.10
2023-03-10T12:49:41.073Z,12.00
2023-03-10T12:52:07.754Z,11.70
2023-03-10T12:54:47.077Z,11.60
2023-03-10T12:57:27.386Z,11.60
2023-03-10T13:00:20.046Z,11.50
2023-03-10T13:02:59.424Z,11.40
2023-03-10T13:05:35.625Z,11.50
2023-03-10T13:08:14.888Z,11.40
2023-03-10T13:10:42.233Z,11.60
2023-03-10T13:13:14.225Z,11.90
2023-03-10T13:15:40.840Z,12.20
2023-03-10T13:18:19.441Z,12.30
2023-03-10T13:20:47.268Z,12.10
2023-03-10T13:23:23.785Z,12.00
2023-03-10T13:26:00.442Z,11.90
2023-03-10T13:28:30.755Z,11.90
2023-03-10T13:31:14.446Z,12.10
2023-03-10T13:33:52.350Z,12.30
2023-03-10T13:36:34.600Z,12.50
2023-03-10T13:39:11.872Z,12.20
2023-03-10T13:41:43.077Z,12.10
2023-03-10T13:44:24.773Z,11.90
2023-03-10T13:47:03.071Z,11.70
2023-03-10T13:49:34.032Z,11.40
2023-03-10T13:52:03.809Z,11.30
2023-03-10T13:54:33.160Z,11.20
2023-03-10T13:57:16.948Z,11.10
2023-03-10T13:59:44.154Z,11.10
2023-03-10T14:02:23.198Z,11.10
2023-03-10T14:04:51.600Z,11.20
2023-03-10T14:07:21.381Z,11.10
2023-03-10T14:10:07.770Z,11.00
2023-03-10T14:12:39.971Z,11.10
2023-03-10T14:15:27.947Z,11.10
2023-03-10T14:18:06.708Z,10.80
2023-03-10T14:20:37.564Z,10.70
2023-03-10T14:23:19.574Z,10.60
2023-03-10T14:25:47.808Z,10.60
2023-03-10T14:28:25.838Z,10.70
2023-03-10T14:30:54.772Z,10.70
2023-03-10T14:33:21.519Z,10.60
2023-03-10T14:35:49.696Z,10.40
2023-03-10T14:38:17.352Z,10.30
2023-03-10T14:40:49.474Z,10.30
2023-03-10T14:43:19.664Z,10.50
2023-03-10T14:45:48.341Z,10.60
2023-03-10T14:48:23.579Z,10.50
2023-03-10T14:50:50.868Z,10.60
2023-03-10T14:53:19.951Z,10.50
2023-03-10T14:55:48.336Z,10.30
2023-03-10T14:58:23.850Z,10.20
2023-03-10T15:00:51.469Z,10.20
2023-03-10T15:03:18.304Z,10.20
2023-03-10T15:05:48.987Z,10.20
2023-03-10T15:08:16.634Z,10.30
2023-03-10T15:10:47.958Z,10.20
2023-03-10T15:13:14.782Z,10.30
2023-03-10T15:15:45.037Z,10.30
2023-03-10T15:18:17.622Z,10.20
2023-03-10T15:20:44.878Z,10.10
2023-03-10T15:23:15.232Z,10.20
2023-03-10T15:25:45.304Z,10.00
2023-03-10T15:28:12.400Z,9.80
2023-03-10T15:30:39.054Z,9.80
2023-03-10T15:33:05.696Z,9.80
2023-03-10T15:35:32.831Z,9.90
2023-03-10T15:37:59.470Z,9.90
2023-03-10T15:40:29.327Z,9.80
2023-03-10T15:42:57.203Z,9.80
2023-03-10T15:45:30.248Z,9.70
2023-03-10T15:47:57.877Z,9.70
2023-03-10T15:50:24.567Z,9.60
2023-03-10T15:52:53.837Z,9.50
2023-03-10T15:55:20.881Z,9.50
2023-03-10T15:57:50.587Z,9.40
2023-03-10T16:00:19.502Z,9.30
2023-03-10T16:02:47.288Z,9.20
2023-03-10T16:05:14.392Z,9.10
2023-03-10T16:07:41.125Z,8.80
2023-03-10T16:10:10.827Z,8.50
2023-03-10T16:12:37.435Z,8.10
2023-03-10T16:15:04.441Z,7.80
2023-03-10T16:17:33.071Z,7.60
2023-03-10T16:20:01.987Z,7.40
2023-03-10T16:22:28.597Z,7.20
2023-03-10T16:24:55.260Z,6.80
2023-03-10T16:27:21.843Z,6.50
2023-03-10T16:29:48.662Z,6.20
2023-03-10T16:32:17.516Z,6.00
2023-03-10T16:34:44.171Z,5.80
2023-03-10T16:37:10.833Z,5.70
2023-03-10T16:39:37.699Z,5.50
2023-03-10T16:42:04.465Z,5.30
2023-03-10T16:44:31.024Z,4.90
2023-03-10T16:46:57.653Z,4.80
2023-03-10T16:49:24.215Z,4.70
2023-03-10T16:51:50.836Z,4.50
2023-03-10T16:54:21.825Z,4.10
2023-03-10T16:56:50.844Z,4.00
2023-03-10T16:59:21.643Z,3.80
2023-03-10T17:01:49.785Z,3.50
2023-03-10T17:04:16.850Z,3.40
2023-03-10T17:06:44.100Z,3.30
2023-03-10T17:09:12.443Z,3.10
2023-03-10T17:11:41.329Z,2.90
2023-03-10T17:14:10.594Z,2.80
2023-03-10T17:16:40.260Z,2.60
2023-03-10T17:19:16.519Z,2.60
2023-03-10T17:21:46.536Z,2.40
2023-03-10T17:24:15.306Z,2.30
2023-03-10T17:26:42.158Z,2.30
2023-03-10T17:29:09.598Z,2.20
2023-03-10T17:31:36.715Z,2.10
2023-03-10T17:34:05.929Z,2.10
2023-03-10T17:36:33.714Z,2.20
2023-03-10T17:39:01.761Z,2.10
2023-03-10T17:41:29.971Z,2.10
2023-03-10T17:43:56.801Z,2.10
2023-03-10T17:46:26.683Z,2.00
2023-03-10T17:48:54.057Z,1.90
2023-03-10T17:51:26.140Z,1.90
2023-03-10T17:53:53.820Z,1.90
2023-03-10T17:56:21.940Z,1.90
2023-03-10T17:58:48.889Z,1.90
2023-03-10T18:01:18.592Z,1.90
2023-03-10T18:03:48.061Z,1.90
2023-03-10T18:06:22.266Z,1.80
2023-03-10T18:08:50.054Z,1.80
2023-03-10T18:11:17.669Z,1.70
2023-03-10T18:13:44.648Z,1.70
2023-03-10T18:16:17.529Z,1.70
2023-03-10T18:18:44.723Z,1.70
2023-03-10T18:21:13.160Z,1.70
2023-03-10T18:23:39.778Z,1.70
2023-03-10T18:26:11.620Z,1.70
2023-03-10T18:28:38.363Z,1.70
2023-03-10T18:31:10.735Z,1.60
2023-03-10T18:33:37.983Z,1.70
2023-03-10T18:36:06.936Z,1.70
2023-03-10T18:38:34.007Z,1.70
2023-03-10T18:41:02.351Z,1.70
2023-03-10T18:43:29.983Z,1.70
2023-03-10T18:45:56.678Z,1.70
2023-03-10T18:48:28.359Z,1.70
2023-03-10T18:50:56.639Z,1.70
2023-03-10T18:53:24.573Z,1.80
2023-03-10T18:55:52.184Z,1.80
2023-03-10T18:58:19.081Z,1.80
2023-03-10T19:00:45.999Z,1.90
2023-03-10T19:03:13.593Z,1.80
2023-03-10T19:05:41.145Z,1.80
2023-03-10T19:08:08.499Z,1.90
2023-03-10T19:10:35.073Z,1.90
2023-03-10T19:13:02.018Z,1.80
2023-03-10T19:15:28.843Z,1.80
2023-03-10T19:17:55.554Z,1.80
2023-03-10T19:20:22.667Z,1.80
2023-03-10T19:22:53.303Z,1.70
2023-03-10T19:25:20.323Z,1.70
2023-03-10T19:27:48.806Z,1.70
2023-03-10T19:30:19.803Z,1.70
2023-03-10T19:32:47.633Z,1.70
2023-03-10T19:35:15.823Z,1.60
2023-03-10T19:37:46.903Z,1.60
2023-03-10T19:40:18.879Z,1.60
2023-03-10T19:42:45.747Z,1.70
2023-03-10T19:45:15.116Z,1.70
2023-03-10T19:47:42.871Z,1.60
2023-03-10T19:50:15.350Z,1.60
2023-03-10T19:52:49.539Z,1.70
2023-03-10T19:55:22.969Z,1.60
2023-03-10T19:57:51.743Z,1.70
2023-03-10T20:00:25.459Z,1.70
2023-03-10T20:02:53.944Z,1.70
2023-03-10T20:05:21.391Z,1.70
2023-03-10T20:07:48.670Z,1.70
2023-03-10T20:10:17.940Z,1.70
2023-03-10T20:12:46.957Z,1.70
2023-03-10T20:15:13.996Z,1.70
2023-03-10T20:17:40.647Z,1.80
2023-03-10T20:20:10.603Z,1.80
2023-03-10T20:22:39.383Z,1.80
2023-03-10T20:25:08.058Z,1.80
2023-03-10T20:27:34.785Z,1.80
2023-03-10T20:30:01.537Z,1.80
2023-03-10T20:32:28.704Z,1.80
2023-03-10T20:34:55.311Z,1.80
2023-03-10T20:37:22.015Z,1.70
2023-03-10T20:39:48.564Z,1.70
2023-03-10T20:42:15.172Z,1.70
2023-03-10T20:44:41.739Z,1.80
2023-03-10T20:47:08.825Z,1.80
2023-03-10T20:49:35.388Z,1.80
2023-03-10T20:52:02.369Z,1.80
2023-03-10T20:54:28.931Z,1.80
2023-03-10T20:56:55.524Z,1.90
2023-03-10T20:59:22.232Z,1.90
2023-03-10T21:01:48.878Z,1.90
2023-03-10T21:04:15.586Z,1.80
2023-03-10T21:06:42.259Z,2.10
2023-03-10T21:09:08.846Z,2.20
2023-03-10T21:11:35.773Z,2.10
2023-03-10T21:14:02.411Z,2.10
2023-03-10T21:16:29.254Z,2.10
2023-03-10T21:18:55.918Z,2.00
2023-03-10T21:21:22.544Z,2.00
2023-03-10T21:23:49.422Z,2.00
2023-03-10T21:26:18.929Z,2.00
2023-03-10T21:28:45.895Z,1.90
2023-03-10T21:31:13.112Z,2.00
2023-03-10T21:33:41.717Z,2.00
2023-03-10T21:36:15.315Z,1.90
2023-03-10T21:38:42.374Z,1.90
2023-03-10T21:41:09.318Z,2.00
2023-03-10T21:43:35.906Z,2.00
2023-03-10T21:46:02.713Z,2.00
2023-03-10T21:48:29.289Z,2.00
2023-03-10T21:50:55.927Z,2.00
2023-03-10T21:53:26.267Z,1.90
2023-03-10T21:55:56.062Z,1.90
2023-03-10T21:58:24.817Z,1.90
2023-03-10T22:00:51.972Z,1.90
2023-03-10T22:03:19.352Z,1.90
2023-03-10T22:05:46.257Z,1.90
2023-03-10T22:08:12.811Z,1.90
2023-03-10T22:10:39.423Z,1.80
2023-03-10T22:13:06.103Z,1.80
2023-03-10T22:15:32.756Z,1.80
2023-03-10T22:17:59.602Z,1.80
2023-03-10T22:20:27.281Z,1.80
2023-03-10T22:22:54.415Z,1.80
2023-03-10T22:25:21.534Z,1.80
2023-03-10T22:27:51.607Z,1.80
2023-03-10T22:30:19.384Z,1.80
2023-03-10T22:32:46.258Z,1.80
2023-03-10T22:35:12.968Z,1.90
2023-03-10T22:37:40.320Z,1.90
2023-03-10T22:40:19.205Z,1.90
2023-03-10T22:42:46.581Z,1.90
2023-03-10T22:45:30.607Z,1.90
2023-03-10T22:48:00.415Z,1.90
2023-03-10T22:50:35.901Z,1.90
2023-03-10T22:53:04.856Z,1.90
2023-03-10T22:55:35.381Z,1.80
2023-03-10T22:58:06.835Z,1.80
2023-03-10T23:00:34.457Z,1.80
2023-03-10T23:03:01.507Z,1.80
2023-03-10T23:05:28.414Z,1.80
2023-03-10T23:07:55.070Z,1.80
2023-03-10T23:10:30.900Z,1.70
2023-03-10T23:13:03.917Z,1.70
2023-03-10T23:15:33.448Z,1.60
2023-03-10T23:18:00.222Z,1.60
2023-03-10T23:20:30.307Z,1.60
2023-03-10T23:22:58.473Z,1.60
2023-03-10T23:25:34.692Z,1.60
2023-03-10T23:28:02.646Z,1.60
2023-03-10T23:30:29.364Z,1.60
2023-03-10T23:32:56.336Z,1.60
2023-03-10T23:35:28.720Z,1.70
2023-03-10T23:37:55.584Z,1.70
2023-03-10T23:40:26.872Z,1.70
2023-03-10T23:42:55.480Z,1.70
2023-03-10T23:45:24.084Z,1.70
2023-03-10T23:47:51.880Z,1.70
2023-03-10T23:50:21.631Z,1.70
2023-03-10T23:52:49.126Z,1.70
2023-03-10T23:55:20.198Z,1.70
2023-03-10T23:57:46.814Z,1.70
